Time;durP1;ratioP1;P1;durP2;ratioP2;P2;SDS_P1;SDS_P2;PMS_P1;PMS_P2;Temp;Humidity;BMP_temperature;BMP_pressure;BME280_temperature;BME280_humidity;BME280_pressure;Samples;Min_cycle;Max_cycle;Signal;HPM_P1;HPM_P2
2022/09/05 00:00:03;;;;;;;;;;;18.40;99.90;;;;;;5038180;28;21495;-66
2022/09/05 00:02:31;;;;;;;;;;;18.40;99.90;;;;;;5039152;28;19916;-65
2022/09/05 00:05:00;;;;;;;;;;;18.40;99.90;;;;;;5035314;28;19917;-65
2022/09/05 00:07:44;;;;;;;;;;;18.30;99.90;;;;;;5033020;28;19916;-65
2022/09/05 00:10:09;;;;;;;;;;;18.40;99.90;;;;;;5026037;28;19999;-67
2022/09/05 00:12:36;;;;;;;;;;;18.40;99.90;;;;;;5028952;28;19919;-66
2022/09/05 00:15:13;;;;;;;;;;;18.30;99.90;;;;;;5039737;28;19956;-66
2022/09/05 00:17:56;;;;;;;;;;;18.20;99.90;;;;;;5040952;28;19920;-67
2022/09/05 00:20:22;;;;;;;;;;;18.10;99.90;;;;;;5039667;28;19924;-66
2022/09/05 00:22:57;;;;;;;;;;;18.10;99.90;;;;;;5051471;28;19921;-67
2022/09/05 00:25:26;;;;;;;;;;;18.20;99.90;;;;;;5032286;28;19928;-66
2022/09/05 00:27:52;;;;;;;;;;;18.20;99.90;;;;;;5034162;28;20528;-66
2022/09/05 00:30:18;;;;;;;;;;;18.10;99.90;;;;;;5037233;28;19921;-65
2022/09/05 00:32:53;;;;;;;;;;;18.20;99.90;;;;;;5032809;28;19924;-66
2022/09/05 00:35:28;;;;;;;;;;;18.20;99.90;;;;;;5034321;28;20020;-66
2022/09/05 00:37:55;;;;;;;;;;;18.20;99.90;;;;;;5030888;28;19970;-66
2022/09/05 00:40:53;;;;;;;;;;;18.20;99.90;;;;;;5036560;28;19928;-65
2022/09/05 00:43:20;;;;;;;;;;;18.30;99.90;;;;;;5032747;28;20247;-65
2022/09/05 00:45:46;;;;;;;;;;;18.30;99.90;;;;;;5039135;28;19921;-66
2022/09/05 00:48:28;;;;;;;;;;;18.40;99.90;;;;;;5035131;28;19919;-66
2022/09/05 00:51:00;;;;;;;;;;;18.40;99.90;;;;;;5038563;28;19913;-65
2022/09/05 00:53:37;;;;;;;;;;;18.50;99.90;;;;;;5034355;28;20296;-66
2022/09/05 00:56:12;;;;;;;;;;;18.50;99.90;;;;;;5033356;28;19913;-67
2022/09/05 00:58:47;;;;;;;;;;;18.50;99.90;;;;;;5037000;28;21852;-65
2022/09/05 01:01:37;;;;;;;;;;;18.60;99.90;;;;;;5036093;28;20363;-66
2022/09/05 01:04:25;;;;;;;;;;;18.60;99.90;;;;;;5040725;28;19923;-65
2022/09/05 01:07:09;;;;;;;;;;;18.60;99.90;;;;;;5038800;28;19947;-66
2022/09/05 01:09:44;;;;;;;;;;;18.60;99.90;;;;;;5038725;28;19919;-65
2022/09/05 01:12:09;;;;;;;;;;;18.60;99.90;;;;;;5040337;28;19919;-66
2022/09/05 01:14:55;;;;;;;;;;;18.60;99.90;;;;;;5032102;28;20292;-66
2022/09/05 01:17:27;;;;;;;;;;;18.70;99.90;;;;;;5023001;28;19928;-68
2022/09/05 01:20:06;;;;;;;;;;;18.70;99.90;;;;;;5034005;28;19920;-66
2022/09/05 01:22:38;;;;;;;;;;;18.60;99.90;;;;;;5043388;28;20585;-65
2022/09/05 01:25:09;;;;;;;;;;;18.50;99.90;;;;;;5044072;28;19913;-67
2022/09/05 01:27:53;;;;;;;;;;;18.50;99.90;;;;;;5040796;28;20430;-66
2022/09/05 01:30:28;;;;;;;;;;;18.50;99.90;;;;;;5039675;28;19917;-66
2022/09/05 01:32:53;;;;;;;;;;;18.40;99.90;;;;;;5036938;28;20323;-66
2022/09/05 01:35:38;;;;;;;;;;;18.30;99.90;;;;;;5040040;28;19924;-66
2022/09/05 01:38:07;;;;;;;;;;;18.20;99.90;;;;;;5032618;28;20066;-66
2022/09/05 01:40:45;;;;;;;;;;;18.10;99.90;;;;;;5039804;28;20013;-67
2022/09/05 01:43:16;;;;;;;;;;;18.10;99.90;;;;;;5039573;28;19916;-66
2022/09/05 01:45:56;;;;;;;;;;;18.10;99.90;;;;;;5039250;28;19916;-66
2022/09/05 01:48:24;;;;;;;;;;;18.00;99.90;;;;;;5037655;28;19921;-66
2022/09/05 01:51:08;;;;;;;;;;;18.00;99.90;;;;;;5040703;28;19912;-66
2022/09/05 01:53:37;;;;;;;;;;;18.00;99.90;;;;;;5043213;28;19913;-66
2022/09/05 01:56:14;;;;;;;;;;;17.90;99.90;;;;;;5039367;28;19999;-66
2022/09/05 01:58:39;;;;;;;;;;;17.90;99.90;;;;;;5037075;28;19975;-65
2022/09/05 02:01:23;;;;;;;;;;;17.90;99.90;;;;;;5038702;28;20003;-65
2022/09/05 02:03:48;;;;;;;;;;;17.90;99.90;;;;;;5041741;28;20835;-66
2022/09/05 02:06:43;;;;;;;;;;;17.80;99.90;;;;;;5041139;28;19928;-65
2022/09/05 02:09:15;;;;;;;;;;;17.90;99.90;;;;;;5025740;28;19921;-66
2022/09/05 02:12:00;;;;;;;;;;;18.00;99.90;;;;;;5040531;28;19920;-65
2022/09/05 02:14:34;;;;;;;;;;;18.00;99.90;;;;;;5038772;28;19921;-65
2022/09/05 02:17:15;;;;;;;;;;;18.10;99.90;;;;;;5035061;28;20007;-65
2022/09/05 02:19:49;;;;;;;;;;;18.10;99.90;;;;;;5012141;28;19925;-65
2022/09/05 02:22:34;;;;;;;;;;;18.10;99.90;;;;;;5040039;28;20343;-65
2022/09/05 02:25:06;;;;;;;;;;;18.20;99.90;;;;;;5018253;28;20280;-65
2022/09/05 02:28:04;;;;;;;;;;;18.30;99.90;;;;;;5041270;28;20529;-65
2022/09/05 02:30:34;;;;;;;;;;;18.40;99.90;;;;;;5017494;28;20705;-66
2022/09/05 02:33:18;;;;;;;;;;;18.40;99.90;;;;;;5038664;28;20368;-68
2022/09/05 02:35:53;;;;;;;;;;;18.50;99.90;;;;;;5036425;28;19917;-65
2022/09/05 02:38:27;;;;;;;;;;;18.40;99.90;;;;;;5035541;28;19970;-65
2022/09/05 02:41:06;;;;;;;;;;;18.30;99.90;;;;;;5038356;28;19928;-64
2022/09/05 02:43:36;;;;;;;;;;;18.10;99.90;;;;;;5037229;28;19963;-66
2022/09/05 02:46:13;;;;;;;;;;;18.10;99.90;;;;;;5035786;28;20360;-66
2022/09/05 02:48:49;;;;;;;;;;;18.10;99.90;;;;;;5037137;28;19913;-66
2022/09/05 02:51:17;;;;;;;;;;;18.00;99.90;;;;;;5038257;28;19913;-65
2022/09/05 02:53:44;;;;;;;;;;;18.00;99.90;;;;;;5038168;28;21589;-65
2022/09/05 02:56:10;;;;;;;;;;;18.00;99.90;;;;;;5035511;28;19920;-66
2022/09/05 02:58:56;;;;;;;;;;;17.90;99.90;;;;;;5036261;28;19928;-66
2022/09/05 03:01:51;;;;;;;;;;;17.90;99.90;;;;;;5075480;27;19928;-65
2022/09/05 03:04:23;;;;;;;;;;;17.70;99.90;;;;;;5071047;28;19913;-65
2022/09/05 03:07:07;;;;;;;;;;;17.70;99.90;;;;;;5072673;28;20663;-65
2022/09/05 03:09:33;;;;;;;;;;;17.70;99.90;;;;;;5074573;28;19919;-66
2022/09/05 03:12:07;;;;;;;;;;;17.60;99.90;;;;;;5079641;28;19916;-65
2022/09/05 03:14:35;;;;;;;;;;;17.60;99.90;;;;;;5074431;28;19916;-65
2022/09/05 03:17:20;;;;;;;;;;;17.50;99.90;;;;;;5071107;28;19913;-64
2022/09/05 03:20:14;;;;;;;;;;;17.40;99.90;;;;;;5048330;28;19924;-65
2022/09/05 03:22:55;;;;;;;;;;;17.40;99.90;;;;;;5070184;28;20291;-65
2022/09/05 03:25:40;;;;;;;;;;;17.30;99.90;;;;;;5066553;28;20748;-65
2022/09/05 03:28:24;;;;;;;;;;;17.30;99.90;;;;;;5065997;28;20389;-66
2022/09/05 03:30:49;;;;;;;;;;;17.30;99.90;;;;;;5067331;28;19916;-65
2022/09/05 03:33:18;;;;;;;;;;;17.30;99.90;;;;;;5069287;28;19912;-64
2022/09/05 03:36:02;;;;;;;;;;;17.30;99.90;;;;;;5066815;28;20011;-65
2022/09/05 03:38:28;;;;;;;;;;;17.30;99.90;;;;;;5065885;28;19916;-65
2022/09/05 03:41:12;;;;;;;;;;;17.30;99.90;;;;;;5069597;28;19959;-65
2022/09/05 03:43:43;;;;;;;;;;;17.20;99.90;;;;;;5069000;28;20638;-65
2022/09/05 03:46:18;;;;;;;;;;;17.20;99.90;;;;;;5069684;28;20249;-68
2022/09/05 03:49:02;;;;;;;;;;;17.10;99.90;;;;;;5070794;28;20014;-65
2022/09/05 03:51:43;;;;;;;;;;;17.00;99.90;;;;;;5073306;28;19916;-65
2022/09/05 03:54:19;;;;;;;;;;;16.90;99.90;;;;;;5069096;28;20374;-64
2022/09/05 03:56:53;;;;;;;;;;;16.80;99.90;;;;;;5075448;28;19961;-65
2022/09/05 03:59:24;;;;;;;;;;;16.60;99.90;;;;;;5068471;28;19912;-66
2022/09/05 04:01:52;;;;;;;;;;;16.60;99.90;;;;;;5071550;28;19921;-66
2022/09/05 04:04:23;;;;;;;;;;;16.50;99.90;;;;;;5065893;28;20450;-65
2022/09/05 04:06:59;;;;;;;;;;;16.50;99.90;;;;;;5064340;28;20017;-66
2022/09/05 04:09:25;;;;;;;;;;;16.40;99.90;;;;;;5071406;28;19927;-66
2022/09/05 04:11:52;;;;;;;;;;;16.40;99.90;;;;;;5064145;28;19912;-66
2022/09/05 04:14:21;;;;;;;;;;;16.50;99.90;;;;;;5055849;28;19927;-65
2022/09/05 04:16:49;;;;;;;;;;;16.60;99.90;;;;;;5040485;28;19916;-65
2022/09/05 04:19:18;;;;;;;;;;;16.60;99.90;;;;;;5053224;28;19921;-64
2022/09/05 04:22:01;;;;;;;;;;;16.60;99.90;;;;;;5031256;28;19917;-65
2022/09/05 04:24:29;;;;;;;;;;;16.60;99.90;;;;;;5040033;28;21706;-65
2022/09/05 04:27:17;;;;;;;;;;;16.60;99.90;;;;;;5051454;28;20185;-65
2022/09/05 04:29:46;;;;;;;;;;;16.60;99.90;;;;;;5058497;28;20015;-64
2022/09/05 04:32:20;;;;;;;;;;;16.50;99.90;;;;;;5057139;28;19920;-65
2022/09/05 04:34:54;;;;;;;;;;;16.50;99.90;;;;;;5056211;28;19921;-66
2022/09/05 04:37:32;;;;;;;;;;;16.50;99.90;;;;;;5056728;28;19916;-65
2022/09/05 04:40:18;;;;;;;;;;;16.50;99.90;;;;;;5062181;28;19929;-65
2022/09/05 04:42:43;;;;;;;;;;;16.60;99.90;;;;;;5037345;28;19932;-65
2022/09/05 04:45:11;;;;;;;;;;;16.50;99.90;;;;;;5064922;28;21095;-65
2022/09/05 04:47:40;;;;;;;;;;;16.40;99.90;;;;;;5059554;28;20037;-65
2022/09/05 04:50:17;;;;;;;;;;;16.30;99.90;;;;;;5061728;28;19938;-65
2022/09/05 04:53:01;;;;;;;;;;;16.30;99.90;;;;;;5058849;28;19988;-65
2022/09/05 04:55:37;;;;;;;;;;;16.30;99.90;;;;;;5061088;28;20429;-65
2022/09/05 04:58:09;;;;;;;;;;;16.30;99.90;;;;;;5061671;28;19934;-65
2022/09/05 05:00:41;;;;;;;;;;;16.20;99.90;;;;;;5057946;28;19997;-65
2022/09/05 05:03:14;;;;;;;;;;;16.10;99.90;;;;;;5050573;28;19913;-65
2022/09/05 05:05:40;;;;;;;;;;;16.00;99.90;;;;;;5063534;28;20262;-65
2022/09/05 05:08:14;;;;;;;;;;;15.90;99.90;;;;;;5063469;28;19926;-66
2022/09/05 05:10:45;;;;;;;;;;;15.80;99.90;;;;;;5067047;28;19920;-64
2022/09/05 05:13:24;;;;;;;;;;;15.80;99.90;;;;;;5065187;28;20290;-65
2022/09/05 05:15:58;;;;;;;;;;;15.70;99.90;;;;;;5063926;28;19970;-66
2022/09/05 05:18:40;;;;;;;;;;;15.70;99.90;;;;;;5062937;28;19912;-66
2022/09/05 05:21:06;;;;;;;;;;;15.60;99.90;;;;;;5051224;28;20027;-65
2022/09/05 05:23:35;;;;;;;;;;;15.60;99.90;;;;;;5057281;28;20015;-66
2022/09/05 05:26:03;;;;;;;;;;;15.50;99.90;;;;;;5059022;28;19921;-65
2022/09/05 05:28:44;;;;;;;;;;;15.50;99.90;;;;;;5062143;28;19988;-66
2022/09/05 05:31:14;;;;;;;;;;;15.40;99.90;;;;;;5063259;28;19920;-65
2022/09/05 05:33:40;;;;;;;;;;;15.40;99.90;;;;;;5062011;28;19912;-66
2022/09/05 05:36:07;;;;;;;;;;;15.30;99.90;;;;;;5060726;28;19928;-65
2022/09/05 05:38:36;;;;;;;;;;;15.20;99.90;;;;;;5060868;28;20003;-65
2022/09/05 05:41:05;;;;;;;;;;;15.20;99.90;;;;;;5055090;28;20261;-66
2022/09/05 05:43:39;;;;;;;;;;;15.20;99.90;;;;;;5061715;28;19978;-66
2022/09/05 05:46:05;;;;;;;;;;;15.30;99.90;;;;;;5058562;28;20034;-65
2022/09/05 05:48:40;;;;;;;;;;;15.30;99.90;;;;;;5058153;28;19996;-66
2022/09/05 05:51:44;;;;;;;;;;;15.30;99.90;;;;;;5059791;28;19913;-64
2022/09/05 05:54:16;;;;;;;;;;;15.30;99.90;;;;;;4964056;28;19913;-66
2022/09/05 05:56:47;;;;;;;;;;;15.50;99.90;;;;;;4975763;28;19954;-65
2022/09/05 05:59:25;;;;;;;;;;;15.40;99.90;;;;;;5019914;28;19912;-65
2022/09/05 06:01:56;;;;;;;;;;;15.50;99.90;;;;;;5055885;28;20054;-66
2022/09/05 06:04:40;;;;;;;;;;;15.40;99.90;;;;;;5061053;28;19965;-65
2022/09/05 06:07:31;;;;;;;;;;;15.40;99.90;;;;;;5061942;28;19920;-65
2022/09/05 06:10:00;;;;;;;;;;;15.30;99.90;;;;;;5060064;28;19916;-65
2022/09/05 06:12:44;;;;;;;;;;;15.30;99.90;;;;;;5057286;28;19921;-65
2022/09/05 06:15:09;;;;;;;;;;;15.30;99.90;;;;;;5059722;28;19919;-65
2022/09/05 06:18:09;;;;;;;;;;;15.30;99.90;;;;;;5051984;28;19921;-66
2022/09/05 06:21:04;;;;;;;;;;;15.30;99.90;;;;;;5052218;28;19924;-65
2022/09/05 06:23:44;;;;;;;;;;;15.40;99.90;;;;;;4983788;28;19922;-65
2022/09/05 06:26:16;;;;;;;;;;;15.20;99.90;;;;;;5054204;28;19924;-65
2022/09/05 06:28:51;;;;;;;;;;;15.20;99.90;;;;;;5057052;28;19912;-66
2022/09/05 06:31:21;;;;;;;;;;;15.20;99.90;;;;;;5055169;28;19912;-66
2022/09/05 06:33:52;;;;;;;;;;;15.20;99.90;;;;;;5055969;28;20148;-66
2022/09/05 06:36:31;;;;;;;;;;;15.10;99.90;;;;;;5036286;28;19912;-65
2022/09/05 06:39:01;;;;;;;;;;;15.00;99.90;;;;;;5056054;28;19966;-65
2022/09/05 06:41:46;;;;;;;;;;;15.10;99.90;;;;;;5030987;28;19924;-65
2022/09/05 06:44:30;;;;;;;;;;;15.20;99.90;;;;;;5049881;28;19944;-66
2022/09/05 06:46:57;;;;;;;;;;;15.20;99.90;;;;;;5056508;28;19920;-65
2022/09/05 06:49:34;;;;;;;;;;;15.30;99.90;;;;;;5056179;28;19987;-65
2022/09/05 06:52:00;;;;;;;;;;;15.40;99.90;;;;;;5052169;28;19931;-65
2022/09/05 06:54:35;;;;;;;;;;;15.40;99.90;;;;;;5058377;28;19913;-64
2022/09/05 06:57:02;;;;;;;;;;;15.60;99.90;;;;;;5050228;28;20022;-65
2022/09/05 06:59:33;;;;;;;;;;;15.60;99.90;;;;;;5060266;28;19913;-67
2022/09/05 07:02:06;;;;;;;;;;;15.70;99.90;;;;;;5066544;28;19924;-65
2022/09/05 07:04:43;;;;;;;;;;;15.80;99.90;;;;;;5069846;28;19944;-66
2022/09/05 07:07:27;;;;;;;;;;;15.90;99.90;;;;;;5065561;28;20243;-66
2022/09/05 07:09:57;;;;;;;;;;;16.00;99.90;;;;;;5064199;28;19924;-67
2022/09/05 07:12:34;;;;;;;;;;;16.10;99.90;;;;;;5040220;28;20256;-65
2022/09/05 07:15:18;;;;;;;;;;;16.30;99.90;;;;;;5061340;28;19987;-67
2022/09/05 07:17:53;;;;;;;;;;;16.50;99.90;;;;;;5067699;28;19973;-65
2022/09/05 07:20:21;;;;;;;;;;;16.70;99.90;;;;;;5061184;28;19920;-66
2022/09/05 07:23:01;;;;;;;;;;;16.90;99.90;;;;;;5056472;28;19916;-65
2022/09/05 07:25:29;;;;;;;;;;;17.00;99.90;;;;;;5056059;28;19912;-67
2022/09/05 07:27:55;;;;;;;;;;;17.10;99.90;;;;;;5053032;28;19912;-67
2022/09/05 07:30:20;;;;;;;;;;;17.20;99.90;;;;;;5058274;28;19920;-66
2022/09/05 07:32:48;;;;;;;;;;;17.30;99.90;;;;;;5055294;28;20919;-68
2022/09/05 07:35:17;;;;;;;;;;;17.30;99.90;;;;;;5056976;28;19916;-65
2022/09/05 07:37:44;;;;;;;;;;;17.50;99.90;;;;;;5055543;28;20363;-66
2022/09/05 07:40:16;;;;;;;;;;;17.70;99.90;;;;;;5044397;28;19924;-66
2022/09/05 07:42:55;;;;;;;;;;;17.90;99.90;;;;;;5070714;28;19916;-66
2022/09/05 07:45:23;;;;;;;;;;;18.00;99.90;;;;;;5066987;28;20066;-66
2022/09/05 07:48:01;;;;;;;;;;;18.10;99.90;;;;;;5072186;28;19928;-66
2022/09/05 07:50:27;;;;;;;;;;;18.20;99.90;;;;;;5050929;28;20375;-67
2022/09/05 07:52:55;;;;;;;;;;;18.20;99.90;;;;;;5056217;28;19921;-68
2022/09/05 07:55:26;;;;;;;;;;;18.30;99.90;;;;;;5054009;28;19967;-65
2022/09/05 07:57:53;;;;;;;;;;;18.30;99.90;;;;;;5075087;28;19923;-66
2022/09/05 08:00:21;;;;;;;;;;;18.30;99.90;;;;;;5081767;28;20739;-67
2022/09/05 08:02:46;;;;;;;;;;;18.30;99.90;;;;;;5072414;28;20400;-65
2022/09/05 08:05:13;;;;;;;;;;;18.30;99.90;;;;;;5074076;28;19920;-67
2022/09/05 08:07:40;;;;;;;;;;;18.30;99.90;;;;;;5069415;28;19927;-67
2022/09/05 08:10:13;;;;;;;;;;;18.20;99.90;;;;;;5069259;28;19963;-68
2022/09/05 08:12:51;;;;;;;;;;;18.30;99.90;;;;;;5071211;28;19920;-67
2022/09/05 08:15:21;;;;;;;;;;;18.40;99.90;;;;;;5074296;28;20028;-67
2022/09/05 08:18:06;;;;;;;;;;;18.50;99.90;;;;;;5069939;28;19921;-68
2022/09/05 08:20:44;;;;;;;;;;;18.70;99.90;;;;;;5070968;28;19920;-67
2022/09/05 08:23:23;;;;;;;;;;;18.90;99.90;;;;;;5066914;28;19948;-67
2022/09/05 08:25:56;;;;;;;;;;;19.00;99.90;;;;;;5065221;28;20344;-68
2022/09/05 08:28:40;;;;;;;;;;;19.10;99.90;;;;;;5053609;28;19913;-68
2022/09/05 08:31:08;;;;;;;;;;;19.20;99.90;;;;;;5071830;28;19963;-66
2022/09/05 08:33:35;;;;;;;;;;;19.30;99.90;;;;;;5072156;28;19913;-67
2022/09/05 08:36:03;;;;;;;;;;;19.40;99.90;;;;;;5071630;28;19970;-67
2022/09/05 08:38:31;;;;;;;;;;;19.40;99.90;;;;;;5072598;28;19920;-67
2022/09/05 08:40:57;;;;;;;;;;;19.40;99.90;;;;;;5047618;28;20103;-67
2022/09/05 08:43:28;;;;;;;;;;;19.40;99.90;;;;;;5075279;28;19920;-66
2022/09/05 08:45:59;;;;;;;;;;;19.50;99.90;;;;;;5068592;28;19913;-65
2022/09/05 08:48:44;;;;;;;;;;;19.50;99.90;;;;;;5069641;28;20318;-65
2022/09/05 08:51:27;;;;;;;;;;;19.50;99.90;;;;;;5069037;28;19974;-65
2022/09/05 08:54:11;;;;;;;;;;;19.60;99.90;;;;;;5046217;28;20003;-65
2022/09/05 08:56:49;;;;;;;;;;;19.80;99.90;;;;;;5065666;28;19934;-67
2022/09/05 08:59:30;;;;;;;;;;;19.90;99.90;;;;;;5069213;28;19924;-67
2022/09/05 09:02:01;;;;;;;;;;;20.00;99.90;;;;;;5056413;28;19927;-67
2022/09/05 09:04:38;;;;;;;;;;;20.20;99.90;;;;;;5072641;28;19923;-66
2022/09/05 09:07:10;;;;;;;;;;;20.40;99.90;;;;;;5067171;28;20015;-67
2022/09/05 09:09:35;;;;;;;;;;;20.50;99.90;;;;;;5068381;28;20279;-67
2022/09/05 09:12:30;;;;;;;;;;;20.60;99.90;;;;;;5071031;28;19991;-67
2022/09/05 09:14:58;;;;;;;;;;;20.80;99.90;;;;;;5055250;28;19966;-67
2022/09/05 09:17:30;;;;;;;;;;;20.90;99.90;;;;;;5063645;28;19912;-67
2022/09/05 09:20:04;;;;;;;;;;;21.30;99.90;;;;;;5071676;28;20402;-67
2022/09/05 09:22:36;;;;;;;;;;;21.40;99.90;;;;;;5067272;28;20373;-67
2022/09/05 09:25:06;;;;;;;;;;;21.50;99.90;;;;;;5048155;28;19912;-68
2022/09/05 09:27:40;;;;;;;;;;;21.80;99.90;;;;;;5067813;28;19917;-67
2022/09/05 09:30:06;;;;;;;;;;;21.90;99.90;;;;;;5069891;28;19932;-64
2022/09/05 09:32:42;;;;;;;;;;;22.10;99.90;;;;;;5075242;28;19908;-67
2022/09/05 09:35:20;;;;;;;;;;;22.20;99.90;;;;;;5066794;28;20274;-67
2022/09/05 09:37:49;;;;;;;;;;;22.30;99.90;;;;;;5065101;28;19920;-67
2022/09/05 09:40:33;;;;;;;;;;;22.40;99.90;;;;;;5047250;28;19916;-67
2022/09/05 09:43:13;;;;;;;;;;;22.10;99.90;;;;;;5067559;28;19916;-66
2022/09/05 09:45:52;;;;;;;;;;;22.00;99.90;;;;;;5064560;28;19912;-65
2022/09/05 09:48:26;;;;;;;;;;;22.10;99.90;;;;;;5047515;28;20390;-64
2022/09/05 09:51:11;;;;;;;;;;;22.10;99.90;;;;;;5047677;28;19951;-65
2022/09/05 09:53:56;;;;;;;;;;;22.20;99.90;;;;;;5065642;28;19912;-65
2022/09/05 09:56:22;;;;;;;;;;;22.30;99.90;;;;;;5072626;28;19916;-65
2022/09/05 09:59:06;;;;;;;;;;;22.30;99.90;;;;;;5067320;28;19913;-65
2022/09/05 10:01:52;;;;;;;;;;;22.20;99.90;;;;;;5062964;28;19989;-65
2022/09/05 10:04:36;;;;;;;;;;;22.20;99.90;;;;;;5070759;28;20011;-65
2022/09/05 10:07:30;;;;;;;;;;;22.30;99.90;;;;;;5038695;28;19913;-65
2022/09/05 10:09:55;;;;;;;;;;;22.60;99.90;;;;;;5043647;28;19912;-65
2022/09/05 10:12:30;;;;;;;;;;;22.60;99.90;;;;;;5068055;28;20802;-66
2022/09/05 10:15:00;;;;;;;;;;;22.50;99.90;;;;;;5065954;28;20019;-66
2022/09/05 10:17:25;;;;;;;;;;;22.70;99.90;;;;;;5060111;28;19913;-66
2022/09/05 10:20:03;;;;;;;;;;;22.60;99.90;;;;;;5071418;28;19928;-65
2022/09/05 10:22:50;;;;;;;;;;;22.60;99.90;;;;;;5061366;28;19924;-66
2022/09/05 10:25:22;;;;;;;;;;;22.60;99.90;;;;;;5063600;28;20706;-66
2022/09/05 10:27:58;;;;;;;;;;;22.50;99.90;;;;;;5065896;28;19920;-65
2022/09/05 10:30:34;;;;;;;;;;;22.50;99.90;;;;;;5067503;28;19956;-65
2022/09/05 10:32:59;;;;;;;;;;;22.50;99.90;;;;;;5070454;28;19974;-65
2022/09/05 10:35:32;;;;;;;;;;;22.50;99.90;;;;;;5068521;28;19916;-66
2022/09/05 10:38:01;;;;;;;;;;;22.50;99.90;;;;;;5066999;28;19912;-66
2022/09/05 10:40:27;;;;;;;;;;;22.40;99.90;;;;;;5068164;28;20372;-67
2022/09/05 10:43:00;;;;;;;;;;;22.40;99.90;;;;;;5063401;28;19955;-65
2022/09/05 10:45:44;;;;;;;;;;;22.40;99.90;;;;;;5065964;28;19920;-67
2022/09/05 10:48:26;;;;;;;;;;;22.50;99.90;;;;;;5041248;28;19917;-68
2022/09/05 10:50:54;;;;;;;;;;;22.50;99.90;;;;;;5069165;28;19920;-66
2022/09/05 10:53:27;;;;;;;;;;;22.60;99.90;;;;;;5065143;28;20011;-65
2022/09/05 10:56:12;;;;;;;;;;;22.50;99.90;;;;;;5066217;28;19966;-65
2022/09/05 10:58:49;;;;;;;;;;;22.30;99.90;;;;;;5040357;28;19912;-65
2022/09/05 11:01:31;;;;;;;;;;;22.20;99.90;;;;;;5063760;28;19928;-66
2022/09/05 11:04:15;;;;;;;;;;;22.10;99.90;;;;;;5068511;28;20384;-67
2022/09/05 11:06:43;;;;;;;;;;;22.00;99.90;;;;;;5067445;28;19913;-65
2022/09/05 11:09:11;;;;;;;;;;;22.00;99.90;;;;;;5069534;28;19988;-65
2022/09/05 11:11:45;;;;;;;;;;;22.00;99.90;;;;;;5065891;28;19920;-65
2022/09/05 11:14:18;;;;;;;;;;;21.90;99.90;;;;;;5062243;28;19920;-66
2022/09/05 11:16:48;;;;;;;;;;;21.90;99.90;;;;;;5069072;28;20465;-65
2022/09/05 11:19:18;;;;;;;;;;;22.00;99.90;;;;;;5064904;28;19912;-65
2022/09/05 11:21:44;;;;;;;;;;;21.90;99.90;;;;;;5063710;28;20064;-66
2022/09/05 11:24:09;;;;;;;;;;;21.70;99.90;;;;;;5055212;28;19913;-65
2022/09/05 11:26:55;;;;;;;;;;;21.50;99.90;;;;;;5053032;28;19948;-66
2022/09/05 11:29:23;;;;;;;;;;;21.30;99.90;;;;;;5068984;28;19919;-65
2022/09/05 11:31:59;;;;;;;;;;;21.00;99.90;;;;;;5064891;28;19916;-65
2022/09/05 11:34:28;;;;;;;;;;;20.80;99.90;;;;;;5075800;28;19923;-66
2022/09/05 11:36:56;;;;;;;;;;;20.70;99.90;;;;;;5061662;28;19959;-66
2022/09/05 11:39:41;;;;;;;;;;;20.60;99.90;;;;;;5069984;28;19995;-65
2022/09/05 11:42:29;;;;;;;;;;;20.60;99.90;;;;;;5069219;28;19920;-65
2022/09/05 11:44:57;;;;;;;;;;;20.60;99.90;;;;;;5072990;28;19912;-64
2022/09/05 11:47:45;;;;;;;;;;;20.80;99.90;;;;;;5078492;28;19917;-67
2022/09/05 11:50:29;;;;;;;;;;;21.00;99.90;;;;;;5067346;28;20378;-66
2022/09/05 11:53:13;;;;;;;;;;;21.10;99.90;;;;;;5073471;28;19912;-66
2022/09/05 11:55:54;;;;;;;;;;;21.30;99.90;;;;;;5073051;28;19917;-66
2022/09/05 11:58:22;;;;;;;;;;;21.40;99.90;;;;;;5063821;28;19919;-65
2022/09/05 12:01:00;;;;;;;;;;;21.40;99.90;;;;;;5068256;28;19928;-66
2022/09/05 12:03:30;;;;;;;;;;;21.30;99.90;;;;;;5049063;28;19913;-67
2022/09/05 12:05:59;;;;;;;;;;;21.20;99.90;;;;;;5069422;28;19923;-67
2022/09/05 12:08:48;;;;;;;;;;;21.20;99.90;;;;;;5067427;28;19912;-67
2022/09/05 12:11:22;;;;;;;;;;;21.00;99.90;;;;;;5017515;28;19916;-67
2022/09/05 12:14:12;;;;;;;;;;;20.80;99.90;;;;;;5069050;28;19916;-67
2022/09/05 12:16:41;;;;;;;;;;;20.70;99.90;;;;;;5060679;28;19937;-67
2022/09/05 12:19:15;;;;;;;;;;;20.70;99.90;;;;;;5068226;28;20367;-66
2022/09/05 12:21:47;;;;;;;;;;;20.60;99.90;;;;;;5067747;28;20427;-66
2022/09/05 12:24:30;;;;;;;;;;;20.70;99.90;;;;;;5068041;28;19970;-67
2022/09/05 12:27:00;;;;;;;;;;;20.70;99.90;;;;;;5070077;28;20363;-66
2022/09/05 12:29:26;;;;;;;;;;;20.70;99.90;;;;;;5068172;28;19919;-65
2022/09/05 12:31:53;;;;;;;;;;;20.50;99.90;;;;;;5085736;28;19934;-66
2022/09/05 12:34:39;;;;;;;;;;;20.40;99.90;;;;;;5064924;28;20008;-66
2022/09/05 12:37:08;;;;;;;;;;;20.30;99.90;;;;;;5061612;28;19951;-66
2022/09/05 12:39:56;;;;;;;;;;;20.20;99.90;;;;;;5054153;28;20458;-66
2022/09/05 12:42:38;;;;;;;;;;;20.20;99.90;;;;;;5030861;28;19916;-66
2022/09/05 12:45:32;;;;;;;;;;;20.20;99.90;;;;;;5063561;28;20249;-67
2022/09/05 12:48:13;;;;;;;;;;;20.20;99.90;;;;;;5062222;28;19912;-65
2022/09/05 12:50:45;;;;;;;;;;;20.30;99.90;;;;;;5044511;28;20390;-65
2022/09/05 12:53:18;;;;;;;;;;;20.40;99.90;;;;;;5040406;28;19923;-65
2022/09/05 12:55:50;;;;;;;;;;;20.50;99.90;;;;;;5070890;28;19924;-64
2022/09/05 12:58:20;;;;;;;;;;;20.70;99.90;;;;;;5091492;28;19934;-65
2022/09/05 13:00:46;;;;;;;;;;;20.70;99.90;;;;;;5083857;28;20079;-65
2022/09/05 13:03:15;;;;;;;;;;;20.80;99.90;;;;;;5083085;28;19919;-66
2022/09/05 13:05:59;;;;;;;;;;;21.00;99.90;;;;;;5092384;28;19912;-66
2022/09/05 13:08:29;;;;;;;;;;;21.10;99.90;;;;;;5080242;28;20367;-65
2022/09/05 13:10:57;;;;;;;;;;;21.30;99.90;;;;;;5082633;28;19913;-65
2022/09/05 13:13:35;;;;;;;;;;;21.50;99.90;;;;;;5065118;28;19923;-65
2022/09/05 13:16:02;;;;;;;;;;;21.60;99.90;;;;;;5089045;28;19904;-65
2022/09/05 13:18:36;;;;;;;;;;;21.60;99.90;;;;;;5080233;28;19912;-65
2022/09/05 13:21:07;;;;;;;;;;;21.60;99.90;;;;;;5053179;28;19923;-67
2022/09/05 13:23:49;;;;;;;;;;;21.60;99.90;;;;;;5082708;28;19904;-66
2022/09/05 13:26:22;;;;;;;;;;;21.90;99.90;;;;;;5076055;28;20018;-66
2022/09/05 13:29:02;;;;;;;;;;;22.10;99.90;;;;;;5063932;28;19913;-65
2022/09/05 13:31:40;;;;;;;;;;;22.40;99.90;;;;;;5068224;28;19999;-66
2022/09/05 13:34:14;;;;;;;;;;;22.50;99.90;;;;;;5073383;28;19936;-65
2022/09/05 13:36:49;;;;;;;;;;;22.50;99.90;;;;;;5067429;28;19913;-65
2022/09/05 13:39:18;;;;;;;;;;;22.40;99.90;;;;;;5066077;28;19912;-65
2022/09/05 13:41:47;;;;;;;;;;;22.50;99.90;;;;;;5067692;28;19916;-66
2022/09/05 13:44:20;;;;;;;;;;;22.60;99.90;;;;;;5066671;28;19935;-66
2022/09/05 13:46:58;;;;;;;;;;;22.70;99.90;;;;;;5063600;28;19913;-67
2022/09/05 13:49:27;;;;;;;;;;;22.80;99.90;;;;;;5071028;28;19913;-66
2022/09/05 13:52:12;;;;;;;;;;;23.00;99.90;;;;;;5071809;28;19942;-65
2022/09/05 13:54:41;;;;;;;;;;;22.80;99.90;;;;;;5015437;28;19913;-66
2022/09/05 13:57:15;;;;;;;;;;;22.80;99.90;;;;;;5068603;28;19913;-66
2022/09/05 13:59:59;;;;;;;;;;;22.90;99.90;;;;;;5062715;28;19973;-67
2022/09/05 14:02:41;;;;;;;;;;;22.80;99.90;;;;;;5052661;28;19916;-65
2022/09/05 14:05:18;;;;;;;;;;;23.00;99.90;;;;;;5063124;28;19927;-66
2022/09/05 14:07:48;;;;;;;;;;;23.10;99.90;;;;;;5065516;28;20005;-66
2022/09/05 14:10:33;;;;;;;;;;;23.10;99.90;;;;;;5071321;28;19912;-66
2022/09/05 14:13:03;;;;;;;;;;;23.20;99.90;;;;;;5067647;28;19948;-65
2022/09/05 14:15:41;;;;;;;;;;;23.10;99.90;;;;;;5070124;28;20491;-66
2022/09/05 14:18:10;;;;;;;;;;;23.00;99.90;;;;;;5064702;28;19912;-66
2022/09/05 14:23:30;;;;;;;;;;;23.10;99.90;;;;;;5058435;28;19992;-66
2022/09/05 14:25:57;;;;;;;;;;;23.10;99.90;;;;;;5051678;28;19916;-65
2022/09/05 14:28:35;;;;;;;;;;;23.10;99.90;;;;;;5071704;28;19957;-67
2022/09/05 14:31:09;;;;;;;;;;;23.20;99.90;;;;;;5061299;28;20336;-66
2022/09/05 14:33:41;;;;;;;;;;;23.40;99.90;;;;;;5072288;28;19970;-65
2022/09/05 14:36:11;;;;;;;;;;;23.40;99.90;;;;;;5058617;28;20426;-65
2022/09/05 14:38:45;;;;;;;;;;;23.40;99.90;;;;;;5065952;28;19921;-64
2022/09/05 14:41:10;;;;;;;;;;;23.60;99.90;;;;;;5065802;28;20360;-65
2022/09/05 14:44:00;;;;;;;;;;;23.80;99.90;;;;;;5086948;28;19905;-66
2022/09/05 14:46:26;;;;;;;;;;;23.90;99.90;;;;;;5089178;28;19943;-66
2022/09/05 14:49:01;;;;;;;;;;;24.10;99.90;;;;;;5084342;28;19916;-65
2022/09/05 14:51:46;;;;;;;;;;;24.30;99.90;;;;;;5087221;28;20375;-65
2022/09/05 14:54:19;;;;;;;;;;;24.30;99.90;;;;;;5061728;28;19996;-65
2022/09/05 14:56:46;;;;;;;;;;;24.20;99.90;;;;;;5072429;28;19913;-65
2022/09/05 14:59:14;;;;;;;;;;;24.10;99.90;;;;;;5074522;28;19935;-67
2022/09/05 15:01:57;;;;;;;;;;;24.10;99.90;;;;;;5076758;28;19955;-65